sensor_id;sensor_type;location;lat;lon;timestamp;pressure;altitude;pressure_sealevel;temperature;humidity
49999;BME280;68071;45.062;7.356;2023-03-22T00:01:08;95090.25;;;8.70;77.78
49999;BME280;68071;45.062;7.356;2023-03-22T00:04:12;95093.78;;;8.63;78.31
49999;BME280;68071;45.062;7.356;2023-03-22T00:07:17;95097.75;;;8.22;80.30
49999;BME280;68071;45.062;7.356;2023-03-22T00:10:21;95088.69;;;8.36;79.61
49999;BME280;68071;45.062;7.356;2023-03-22T00:13:25;95092.22;;;8.26;79.63
49999;BME280;68071;45.062;7.356;2023-03-22T00:16:29;95089.84;;;8.71;77.26
49999;BME280;68071;45.062;7.356;2023-03-22T00:19:33;95092.63;;;8.57;77.92
49999;BME280;68071;45.062;7.356;2023-03-22T00:22:40;95090.25;;;8.41;78.93
49999;BME280;68071;45.062;7.356;2023-03-22T00:25:45;95087.88;;;8.43;79.27
49999;BME280;68071;45.062;7.356;2023-03-22T00:28:49;95088.69;;;8.51;78.53
49999;BME280;68071;45.062;7.356;2023-03-22T00:31:53;95083.97;;;8.29;79.98
49999;BME280;68071;45.062;7.356;2023-03-22T00:34:58;95085.53;;;8.41;78.33
49999;BME280;68071;45.062;7.356;2023-03-22T00:38:04;95076.91;;;8.17;80.37
49999;BME280;68071;45.062;7.356;2023-03-22T00:41:18;95084.75;;;7.97;81.86
49999;BME280;68071;45.062;7.356;2023-03-22T00:44:23;95077.25;;;8.63;77.76
49999;BME280;68071;45.062;7.356;2023-03-22T00:47:27;95064.09;;;9.14;74.30
49999;BME280;68071;45.062;7.356;2023-03-22T00:50:31;95066.97;;;8.78;76.72
49999;BME280;68071;45.062;7.356;2023-03-22T00:53:36;95070.19;;;8.40;79.03
49999;BME280;68071;45.062;7.356;2023-03-22T00:56:40;95069.41;;;8.47;78.53
49999;BME280;68071;45.062;7.356;2023-03-22T00:59:50;95061.13;;;8.54;78.58
49999;BME280;68071;45.062;7.356;2023-03-22T01:02:56;95060.38;;;8.39;79.44
49999;BME280;68071;45.062;7.356;2023-03-22T01:06:03;95063.88;;;8.43;79.41
49999;BME280;68071;45.062;7.356;2023-03-22T01:09:07;95059.59;;;8.31;81.39
49999;BME280;68071;45.062;7.356;2023-03-22T01:12:12;95061.56;;;8.06;83.12
49999;BME280;68071;45.062;7.356;2023-03-22T01:15:16;95060.41;;;7.81;84.36
49999;BME280;68071;45.062;7.356;2023-03-22T01:18:21;95058.03;;;7.98;82.61
49999;BME280;68071;45.062;7.356;2023-03-22T01:21:24;95054.81;;;8.61;79.03
49999;BME280;68071;45.062;7.356;2023-03-22T01:24:28;95059.59;;;7.99;83.28
49999;BME280;68071;45.062;7.356;2023-03-22T01:27:33;95058.03;;;7.91;83.23
49999;BME280;68071;45.062;7.356;2023-03-22T01:30:38;95060.00;;;7.94;82.96
49999;BME280;68071;45.062;7.356;2023-03-22T01:33:43;95052.50;;;8.30;80.54
49999;BME280;68071;45.062;7.356;2023-03-22T01:36:47;95045.84;;;8.02;82.21
49999;BME280;68071;45.062;7.356;2023-03-22T01:39:53;95053.31;;;7.91;82.55
49999;BME280;68071;45.062;7.356;2023-03-22T01:42:59;95056.06;;;7.87;82.71
49999;BME280;68071;45.062;7.356;2023-03-22T01:46:03;95063.53;;;8.05;81.63
49999;BME280;68071;45.062;7.356;2023-03-22T01:49:14;95062.72;;;8.19;80.63
49999;BME280;68071;45.062;7.356;2023-03-22T01:52:19;95056.44;;;8.22;79.97
49999;BME280;68071;45.062;7.356;2023-03-22T01:55:36;95051.34;;;7.74;82.25
49999;BME280;68071;45.062;7.356;2023-03-22T01:58:55;95054.47;;;7.57;83.85
49999;BME280;68071;45.062;7.356;2023-03-22T02:02:07;95051.28;;;7.48;83.94
49999;BME280;68071;45.062;7.356;2023-03-22T02:05:14;95050.09;;;7.38;84.58
49999;BME280;68071;45.062;7.356;2023-03-22T02:08:18;95059.97;;;7.72;83.03
49999;BME280;68071;45.062;7.356;2023-03-22T02:11:35;95047.00;;;7.80;82.62
49999;BME280;68071;45.062;7.356;2023-03-22T02:15:09;95051.34;;;7.95;81.88
49999;BME280;68071;45.062;7.356;2023-03-22T02:22:02;95051.75;;;7.65;83.44
49999;BME280;68071;45.062;7.356;2023-03-22T02:28:48;95048.50;;;7.19;86.23
49999;BME280;68071;45.062;7.356;2023-03-22T02:43:04;95045.03;;;7.55;83.83
49999;BME280;68071;45.062;7.356;2023-03-22T02:46:27;95052.13;;;7.88;81.96
49999;BME280;68071;45.062;7.356;2023-03-22T02:49:38;95051.72;;;7.72;83.24
49999;BME280;68071;45.062;7.356;2023-03-22T02:56:04;95061.50;;;7.37;84.83
49999;BME280;68071;45.062;7.356;2023-03-22T02:59:11;95055.97;;;7.22;85.09
49999;BME280;68071;45.062;7.356;2023-03-22T03:02:17;95058.38;;;7.46;83.96
49999;BME280;68071;45.062;7.356;2023-03-22T03:05:24;95053.69;;;7.79;82.57
49999;BME280;68071;45.062;7.356;2023-03-22T03:08:29;95056.84;;;7.77;82.57
49999;BME280;68071;45.062;7.356;2023-03-22T03:11:34;95063.88;;;7.60;83.67
49999;BME280;68071;45.062;7.356;2023-03-22T03:14:39;95050.94;;;7.71;82.56
49999;BME280;68071;45.062;7.356;2023-03-22T03:21:53;95058.41;;;7.64;83.55
49999;BME280;68071;45.062;7.356;2023-03-22T03:25:22;95052.91;;;7.93;81.36
49999;BME280;68071;45.062;7.356;2023-03-22T03:32:06;95053.31;;;8.06;80.28
49999;BME280;68071;45.062;7.356;2023-03-22T03:35:19;95053.22;;;7.30;83.92
49999;BME280;68071;45.062;7.356;2023-03-22T03:38:30;95062.97;;;6.98;85.64
49999;BME280;68071;45.062;7.356;2023-03-22T03:41:37;95062.97;;;6.98;86.90
49999;BME280;68071;45.062;7.356;2023-03-22T03:44:44;95054.72;;;7.05;86.25
49999;BME280;68071;45.062;7.356;2023-03-22T03:47:48;95057.13;;;7.21;84.82
49999;BME280;68071;45.062;7.356;2023-03-22T03:51:01;95066.84;;;6.86;87.21
49999;BME280;68071;45.062;7.356;2023-03-22T03:54:05;95065.13;;;6.60;90.09
49999;BME280;68071;45.062;7.356;2023-03-22T03:57:09;95068.13;;;6.36;90.52
49999;BME280;68071;45.062;7.356;2023-03-22T04:00:14;95072.22;;;6.64;90.19
49999;BME280;68071;45.062;7.356;2023-03-22T04:03:38;95069.81;;;6.56;90.21
49999;BME280;68071;45.062;7.356;2023-03-22T04:06:42;95071.41;;;6.64;90.60
49999;BME280;68071;45.062;7.356;2023-03-22T04:09:51;95073.16;;;6.97;88.89
49999;BME280;68071;45.062;7.356;2023-03-22T04:13:03;95075.84;;;6.87;88.36
49999;BME280;68071;45.062;7.356;2023-03-22T04:16:09;95074.28;;;6.86;89.57
49999;BME280;68071;45.062;7.356;2023-03-22T04:19:14;95082.50;;;6.82;89.55
49999;BME280;68071;45.062;7.356;2023-03-22T04:22:19;95073.81;;;6.73;90.24
49999;BME280;68071;45.062;7.356;2023-03-22T04:25:23;95082.22;;;7.05;89.83
49999;BME280;68071;45.062;7.356;2023-03-22T04:28:41;95084.28;;;7.48;87.00
49999;BME280;68071;45.062;7.356;2023-03-22T04:31:45;95086.63;;;7.32;87.53
49999;BME280;68071;45.062;7.356;2023-03-22T04:34:59;95081.16;;;7.53;86.18
49999;BME280;68071;45.062;7.356;2023-03-22T04:38:03;95074.84;;;7.28;88.01
49999;BME280;68071;45.062;7.356;2023-03-22T04:41:10;95073.69;;;7.50;87.02
49999;BME280;68071;45.062;7.356;2023-03-22T04:44:19;95079.91;;;7.18;88.79
49999;BME280;68071;45.062;7.356;2023-03-22T04:47:27;95075.44;;;6.85;89.89
49999;BME280;68071;45.062;7.356;2023-03-22T04:50:31;95089.72;;;7.16;89.35
49999;BME280;68071;45.062;7.356;2023-03-22T04:53:39;95087.81;;;7.41;87.56
49999;BME280;68071;45.062;7.356;2023-03-22T04:56:44;95090.44;;;7.05;87.04
49999;BME280;68071;45.062;7.356;2023-03-22T04:59:50;95088.19;;;7.29;85.45
49999;BME280;68071;45.062;7.356;2023-03-22T05:02:55;95084.81;;;6.73;88.72
49999;BME280;68071;45.062;7.356;2023-03-22T05:06:17;95081.63;;;6.67;90.20
49999;BME280;68071;45.062;7.356;2023-03-22T05:09:41;95081.28;;;6.69;87.97
49999;BME280;68071;45.062;7.356;2023-03-22T05:12:46;95086.13;;;6.30;90.98
49999;BME280;68071;45.062;7.356;2023-03-22T05:16:04;95082.69;;;6.44;89.92
49999;BME280;68071;45.062;7.356;2023-03-22T05:19:19;95098.97;;;6.78;88.49
49999;BME280;68071;45.062;7.356;2023-03-22T05:22:27;95103.19;;;6.65;89.02
49999;BME280;68071;45.062;7.356;2023-03-22T05:25:35;95102.16;;;6.84;88.54
49999;BME280;68071;45.062;7.356;2023-03-22T05:28:42;95108.47;;;6.92;88.40
49999;BME280;68071;45.062;7.356;2023-03-22T05:32:01;95099.41;;;6.84;87.53
49999;BME280;68071;45.062;7.356;2023-03-22T05:35:06;95104.44;;;6.75;88.88
49999;BME280;68071;45.062;7.356;2023-03-22T05:38:15;95108.88;;;6.94;90.18
49999;BME280;68071;45.062;7.356;2023-03-22T05:41:24;95098.59;;;6.84;88.38
49999;BME280;68071;45.062;7.356;2023-03-22T05:44:29;95090.28;;;6.69;89.77
49999;BME280;68071;45.062;7.356;2023-03-22T05:47:46;95082.44;;;6.68;91.28
49999;BME280;68071;45.062;7.356;2023-03-22T05:50:55;95090.13;;;6.44;91.47
49999;BME280;68071;45.062;7.356;2023-03-22T05:53:59;95095.06;;;6.79;91.32
49999;BME280;68071;45.062;7.356;2023-03-22T05:57:11;95093.59;;;7.07;89.07
49999;BME280;68071;45.062;7.356;2023-03-22T06:00:16;95082.25;;;7.16;88.45
49999;BME280;68071;45.062;7.356;2023-03-22T06:03:41;95087.34;;;7.07;88.14
49999;BME280;68071;45.062;7.356;2023-03-22T06:06:53;95093.94;;;6.95;90.21
49999;BME280;68071;45.062;7.356;2023-03-22T06:10:24;95090.00;;;6.92;91.92
49999;BME280;68071;45.062;7.356;2023-03-22T06:13:29;95088.91;;;7.08;91.88
49999;BME280;68071;45.062;7.356;2023-03-22T06:16:33;95103.50;;;7.26;91.22
49999;BME280;68071;45.062;7.356;2023-03-22T06:19:37;95096.91;;;7.60;88.79
49999;BME280;68071;45.062;7.356;2023-03-22T06:22:42;95105.19;;;7.64;89.23
49999;BME280;68071;45.062;7.356;2023-03-22T06:25:47;95101.63;;;7.67;89.25
49999;BME280;68071;45.062;7.356;2023-03-22T06:28:52;95108.34;;;7.80;88.95
49999;BME280;68071;45.062;7.356;2023-03-22T06:31:57;95109.53;;;7.94;88.85
49999;BME280;68071;45.062;7.356;2023-03-22T06:35:01;95116.19;;;7.96;91.76
49999;BME280;68071;45.062;7.356;2023-03-22T06:38:06;95107.56;;;8.12;90.74
49999;BME280;68071;45.062;7.356;2023-03-22T06:41:13;95115.06;;;8.12;92.99
49999;BME280;68071;45.062;7.356;2023-03-22T06:44:17;95115.03;;;8.19;91.98
49999;BME280;68071;45.062;7.356;2023-03-22T06:47:27;95112.69;;;8.36;87.78
49999;BME280;68071;45.062;7.356;2023-03-22T06:50:37;95119.38;;;8.63;86.15
49999;BME280;68071;45.062;7.356;2023-03-22T06:53:49;95118.53;;;8.88;83.33
49999;BME280;68071;45.062;7.356;2023-03-22T06:56:53;95123.59;;;9.12;82.11
49999;BME280;68071;45.062;7.356;2023-03-22T06:59:58;95127.09;;;9.19;85.94
49999;BME280;68071;45.062;7.356;2023-03-22T07:03:02;95118.25;;;9.57;82.47
49999;BME280;68071;45.062;7.356;2023-03-22T07:06:12;95121.75;;;9.65;79.10
49999;BME280;68071;45.062;7.356;2023-03-22T07:09:20;95124.84;;;9.78;83.38
49999;BME280;68071;45.062;7.356;2023-03-22T07:12:29;95132.69;;;9.87;82.15
49999;BME280;68071;45.062;7.356;2023-03-22T07:15:35;95122.34;;;10.02;79.98
49999;BME280;68071;45.062;7.356;2023-03-22T07:18:53;95134.09;;;10.13;79.75
49999;BME280;68071;45.062;7.356;2023-03-22T07:21:59;95144.31;;;10.20;77.54
49999;BME280;68071;45.062;7.356;2023-03-22T07:25:04;95139.84;;;10.37;75.75
49999;BME280;68071;45.062;7.356;2023-03-22T07:28:10;95139.38;;;10.49;74.64
49999;BME280;68071;45.062;7.356;2023-03-22T07:31:15;95131.41;;;10.58;75.43
49999;BME280;68071;45.062;7.356;2023-03-22T07:34:39;95145.06;;;10.73;72.10
49999;BME280;68071;45.062;7.356;2023-03-22T07:37:51;95139.88;;;10.79;71.67
49999;BME280;68071;45.062;7.356;2023-03-22T07:41:04;95144.81;;;11.02;71.29
49999;BME280;68071;45.062;7.356;2023-03-22T07:44:26;95142.22;;;11.22;68.31
49999;BME280;68071;45.062;7.356;2023-03-22T07:47:55;95139.63;;;11.42;66.38
49999;BME280;68071;45.062;7.356;2023-03-22T07:51:18;95147.13;;;11.73;65.18
49999;BME280;68071;45.062;7.356;2023-03-22T07:54:23;95146.81;;;11.67;64.39
49999;BME280;68071;45.062;7.356;2023-03-22T07:57:27;95148.66;;;11.77;64.18
49999;BME280;68071;45.062;7.356;2023-03-22T08:00:35;95148.34;;;11.72;64.51
49999;BME280;68071;45.062;7.356;2023-03-22T08:03:59;95150.97;;;11.83;63.74
49999;BME280;68071;45.062;7.356;2023-03-22T08:07:21;95152.38;;;11.94;65.58
49999;BME280;68071;45.062;7.356;2023-03-22T08:10:28;95153.25;;;11.91;63.90
49999;BME280;68071;45.062;7.356;2023-03-22T08:13:34;95158.28;;;11.96;64.28
49999;BME280;68071;45.062;7.356;2023-03-22T08:16:38;95155.91;;;12.26;62.85
49999;BME280;68071;45.062;7.356;2023-03-22T08:19:44;95154.19;;;12.08;63.45
49999;BME280;68071;45.062;7.356;2023-03-22T08:22:53;95156.88;;;12.16;64.85
49999;BME280;68071;45.062;7.356;2023-03-22T08:26:03;95158.47;;;12.13;65.44
49999;BME280;68071;45.062;7.356;2023-03-22T08:29:09;95160.41;;;12.44;64.08
49999;BME280;68071;45.062;7.356;2023-03-22T08:32:15;95163.03;;;12.27;64.51
49999;BME280;68071;45.062;7.356;2023-03-22T08:35:19;95166.91;;;12.33;62.69
49999;BME280;68071;45.062;7.356;2023-03-22T08:38:24;95157.41;;;12.58;60.71
49999;BME280;68071;45.062;7.356;2023-03-22T08:41:30;95165.00;;;12.78;59.72
49999;BME280;68071;45.062;7.356;2023-03-22T08:44:34;95163.75;;;12.59;59.45
49999;BME280;68071;45.062;7.356;2023-03-22T08:47:42;95175.13;;;12.64;57.31
49999;BME280;68071;45.062;7.356;2023-03-22T08:50:46;95169.16;;;12.42;58.62
49999;BME280;68071;45.062;7.356;2023-03-22T08:54:00;95172.78;;;12.63;62.53
49999;BME280;68071;45.062;7.356;2023-03-22T08:57:24;95175.69;;;12.79;60.63
49999;BME280;68071;45.062;7.356;2023-03-22T09:00:48;95165.19;;;12.67;58.15
49999;BME280;68071;45.062;7.356;2023-03-22T09:04:07;95170.13;;;12.79;58.28
49999;BME280;68071;45.062;7.356;2023-03-22T09:07:11;95170.91;;;12.56;59.38
49999;BME280;68071;45.062;7.356;2023-03-22T09:10:19;95177.97;;;12.61;59.21
49999;BME280;68071;45.062;7.356;2023-03-22T09:13:25;95174.63;;;12.46;58.07
49999;BME280;68071;45.062;7.356;2023-03-22T09:16:33;95179.00;;;12.70;58.85
49999;BME280;68071;45.062;7.356;2023-03-22T09:19:38;95174.28;;;12.67;56.96
49999;BME280;68071;45.062;7.356;2023-03-22T09:22:43;95175.88;;;12.92;57.33
49999;BME280;68071;45.062;7.356;2023-03-22T09:25:49;95174.13;;;13.02;56.85
49999;BME280;68071;45.062;7.356;2023-03-22T09:28:58;95179.53;;;13.09;55.74
49999;BME280;68071;45.062;7.356;2023-03-22T09:32:02;95171.28;;;13.06;56.23
49999;BME280;68071;45.062;7.356;2023-03-22T09:35:09;95170.44;;;13.09;55.83
49999;BME280;68071;45.062;7.356;2023-03-22T09:38:25;95170.09;;;13.27;59.05
49999;BME280;68071;45.062;7.356;2023-03-22T09:42:06;95162.75;;;13.40;57.64
49999;BME280;68071;45.062;7.356;2023-03-22T09:45:06;95166.84;;;13.52;57.18
49999;BME280;68071;45.062;7.356;2023-03-22T09:54:43;95164.38;;;13.58;60.83
49999;BME280;68071;45.062;7.356;2023-03-22T09:58:10;95156.63;;;13.49;59.53
49999;BME280;68071;45.062;7.356;2023-03-22T10:05:20;95156.53;;;13.53;59.81
49999;BME280;68071;45.062;7.356;2023-03-22T10:08:34;95157.84;;;14.05;58.08
49999;BME280;68071;45.062;7.356;2023-03-22T10:11:48;95152.31;;;14.21;58.63
49999;BME280;68071;45.062;7.356;2023-03-22T10:15:19;95161.34;;;14.26;58.71
49999;BME280;68071;45.062;7.356;2023-03-22T10:18:26;95160.56;;;14.25;59.50
49999;BME280;68071;45.062;7.356;2023-03-22T10:21:32;95152.09;;;14.12;59.98
49999;BME280;68071;45.062;7.356;2023-03-22T10:24:40;95153.53;;;14.37;57.06
49999;BME280;68071;45.062;7.356;2023-03-22T10:27:48;95151.25;;;14.15;60.73
49999;BME280;68071;45.062;7.356;2023-03-22T10:30:54;95146.72;;;14.05;60.57
49999;BME280;68071;45.062;7.356;2023-03-22T10:34:11;95143.53;;;14.40;60.95
49999;BME280;68071;45.062;7.356;2023-03-22T10:37:22;95141.38;;;14.47;57.85
49999;BME280;68071;45.062;7.356;2023-03-22T10:40:30;95138.00;;;14.56;59.44
49999;BME280;68071;45.062;7.356;2023-03-22T10:43:37;95135.91;;;14.60;61.84
49999;BME280;68071;45.062;7.356;2023-03-22T10:46:43;95144.50;;;14.99;58.36
49999;BME280;68071;45.062;7.356;2023-03-22T10:49:51;95146.13;;;15.13;58.65
49999;BME280;68071;45.062;7.356;2023-03-22T10:56:20;95154.84;;;14.49;60.72
49999;BME280;68071;45.062;7.356;2023-03-22T10:59:57;95148.94;;;14.47;59.14
49999;BME280;68071;45.062;7.356;2023-03-22T11:03:01;95149.38;;;14.45;60.75
49999;BME280;68071;45.062;7.356;2023-03-22T11:06:16;95148.69;;;14.91;60.73
49999;BME280;68071;45.062;7.356;2023-03-22T11:09:22;95145.63;;;15.02;57.07
49999;BME280;68071;45.062;7.356;2023-03-22T11:12:26;95140.31;;;15.37;55.18
49999;BME280;68071;45.062;7.356;2023-03-22T11:15:32;95140.97;;;15.28;55.37
49999;BME280;68071;45.062;7.356;2023-03-22T11:18:40;95126.94;;;14.86;61.84
49999;BME280;68071;45.062;7.356;2023-03-22T11:21:44;95137.53;;;15.07;57.00
49999;BME280;68071;45.062;7.356;2023-03-22T11:24:49;95133.28;;;15.32;59.88
49999;BME280;68071;45.062;7.356;2023-03-22T11:28:17;95128.22;;;15.86;58.14
49999;BME280;68071;45.062;7.356;2023-03-22T11:31:20;95126.56;;;15.17;57.40
49999;BME280;68071;45.062;7.356;2023-03-22T11:34:27;95132.25;;;15.26;58.81
49999;BME280;68071;45.062;7.356;2023-03-22T11:37:31;95136.22;;;15.12;59.87
49999;BME280;68071;45.062;7.356;2023-03-22T11:40:36;95127.97;;;15.08;58.33
49999;BME280;68071;45.062;7.356;2023-03-22T11:43:59;95116.66;;;15.16;57.86
49999;BME280;68071;45.062;7.356;2023-03-22T11:47:07;95119.19;;;15.52;55.32
49999;BME280;68071;45.062;7.356;2023-03-22T11:50:28;95111.63;;;16.08;57.53
49999;BME280;68071;45.062;7.356;2023-03-22T11:53:37;95113.88;;;16.26;55.82
49999;BME280;68071;45.062;7.356;2023-03-22T11:56:45;95109.97;;;15.98;53.36
49999;BME280;68071;45.062;7.356;2023-03-22T12:00:00;95111.44;;;15.73;58.23
49999;BME280;68071;45.062;7.356;2023-03-22T12:03:26;95100.47;;;15.40;59.81
49999;BME280;68071;45.062;7.356;2023-03-22T12:06:35;95088.56;;;16.21;56.92
49999;BME280;68071;45.062;7.356;2023-03-22T12:13:16;95091.97;;;16.38;55.58
49999;BME280;68071;45.062;7.356;2023-03-22T12:16:27;95087.31;;;15.96;55.75
49999;BME280;68071;45.062;7.356;2023-03-22T12:20:03;95086.31;;;16.02;54.55
49999;BME280;68071;45.062;7.356;2023-03-22T12:23:17;95078.16;;;16.21;56.32
49999;BME280;68071;45.062;7.356;2023-03-22T12:26:26;95080.38;;;15.75;61.06
49999;BME280;68071;45.062;7.356;2023-03-22T12:29:32;95069.59;;;16.28;57.98
49999;BME280;68071;45.062;7.356;2023-03-22T12:33:01;95069.59;;;16.02;57.04
49999;BME280;68071;45.062;7.356;2023-03-22T12:36:14;95063.56;;;16.17;56.79
49999;BME280;68071;45.062;7.356;2023-03-22T12:39:29;95058.84;;;16.53;54.15
49999;BME280;68071;45.062;7.356;2023-03-22T12:45:59;95042.69;;;15.57;58.54
49999;BME280;68071;45.062;7.356;2023-03-22T12:52:41;95033.19;;;15.54;57.78
49999;BME280;68071;45.062;7.356;2023-03-22T12:55:48;95032.53;;;15.76;58.16
49999;BME280;68071;45.062;7.356;2023-03-22T12:58:55;95035.66;;;15.78;54.91
49999;BME280;68071;45.062;7.356;2023-03-22T13:05:09;95022.19;;;16.15;57.18
49999;BME280;68071;45.062;7.356;2023-03-22T13:08:19;95025.63;;;15.81;57.77
49999;BME280;68071;45.062;7.356;2023-03-22T13:11:24;95020.28;;;16.25;58.33
49999;BME280;68071;45.062;7.356;2023-03-22T13:17:51;95019.41;;;16.63;54.93
49999;BME280;68071;45.062;7.356;2023-03-22T13:21:21;95017.81;;;16.27;56.49
49999;BME280;68071;45.062;7.356;2023-03-22T13:24:25;95010.38;;;16.11;59.03
49999;BME280;68071;45.062;7.356;2023-03-22T13:27:53;95013.69;;;16.19;56.59
49999;BME280;68071;45.062;7.356;2023-03-22T13:30:59;95001.56;;;16.26;56.63
49999;BME280;68071;45.062;7.356;2023-03-22T13:34:14;95005.31;;;16.32;55.90
49999;BME280;68071;45.062;7.356;2023-03-22T13:43:58;94993.41;;;16.31;56.51
49999;BME280;68071;45.062;7.356;2023-03-22T13:47:02;94991.66;;;16.82;55.97
49999;BME280;68071;45.062;7.356;2023-03-22T13:50:20;94987.94;;;16.63;54.97
49999;BME280;68071;45.062;7.356;2023-03-22T13:53:29;94983.91;;;16.99;53.14
49999;BME280;68071;45.062;7.356;2023-03-22T14:00:05;94981.91;;;16.87;53.58
49999;BME280;68071;45.062;7.356;2023-03-22T14:03:28;94982.66;;;17.22;51.64
49999;BME280;68071;45.062;7.356;2023-03-22T14:13:47;94971.75;;;17.47;50.74
49999;BME280;68071;45.062;7.356;2023-03-22T14:16:59;94974.13;;;17.58;51.29
49999;BME280;68071;45.062;7.356;2023-03-22T14:20:05;94963.84;;;17.77;50.94
49999;BME280;68071;45.062;7.356;2023-03-22T14:23:18;94967.97;;;17.63;50.82
49999;BME280;68071;45.062;7.356;2023-03-22T14:26:28;94961.91;;;17.64;50.94
49999;BME280;68071;45.062;7.356;2023-03-22T14:29:42;94956.13;;;17.59;53.57
49999;BME280;68071;45.062;7.356;2023-03-22T14:32:47;94950.66;;;17.96;49.21
49999;BME280;68071;45.062;7.356;2023-03-22T14:35:56;94952.06;;;17.91;48.73
49999;BME280;68071;45.062;7.356;2023-03-22T14:39:13;94946.59;;;17.78;49.75
49999;BME280;68071;45.062;7.356;2023-03-22T14:45:25;94937.44;;;17.87;48.64
49999;BME280;68071;45.062;7.356;2023-03-22T14:48:33;94930.72;;;18.44;48.50
49999;BME280;68071;45.062;7.356;2023-03-22T14:51:40;94934.78;;;18.52;46.65
49999;BME280;68071;45.062;7.356;2023-03-22T14:54:50;94931.34;;;18.76;47.24
49999;BME280;68071;45.062;7.356;2023-03-22T14:57:57;94925.91;;;18.44;47.83
49999;BME280;68071;45.062;7.356;2023-03-22T15:01:07;94921.25;;;18.51;47.33
49999;BME280;68071;45.062;7.356;2023-03-22T15:04:15;94922.81;;;18.52;45.38
49999;BME280;68071;45.062;7.356;2023-03-22T15:07:20;94920.78;;;18.62;46.21
49999;BME280;68071;45.062;7.356;2023-03-22T15:10:26;94923.81;;;17.98;47.17
49999;BME280;68071;45.062;7.356;2023-03-22T15:13:33;94922.09;;;17.10;51.49
49999;BME280;68071;45.062;7.356;2023-03-22T15:16:41;94920.22;;;17.48;50.10
49999;BME280;68071;45.062;7.356;2023-03-22T15:19:49;94921.28;;;16.87;55.00
49999;BME280;68071;45.062;7.356;2023-03-22T15:22:55;94927.13;;;16.36;54.40
49999;BME280;68071;45.062;7.356;2023-03-22T15:29:21;94924.81;;;17.01;52.62
49999;BME280;68071;45.062;7.356;2023-03-22T15:32:27;94921.59;;;16.67;55.42
49999;BME280;68071;45.062;7.356;2023-03-22T15:35:32;94922.47;;;16.55;54.27
49999;BME280;68071;45.062;7.356;2023-03-22T15:38:40;94928.94;;;16.52;54.62
49999;BME280;68071;45.062;7.356;2023-03-22T15:41:54;94931.06;;;16.47;55.36
49999;BME280;68071;45.062;7.356;2023-03-22T15:48:19;94927.00;;;16.84;52.16
49999;BME280;68071;45.062;7.356;2023-03-22T15:51:32;94929.13;;;16.57;53.63
49999;BME280;68071;45.062;7.356;2023-03-22T15:58:00;94925.19;;;16.68;51.83
49999;BME280;68071;45.062;7.356;2023-03-22T16:01:10;94930.22;;;16.38;53.57
49999;BME280;68071;45.062;7.356;2023-03-22T16:04:22;94930.06;;;16.54;52.65
49999;BME280;68071;45.062;7.356;2023-03-22T16:07:28;94937.16;;;16.55;52.76
49999;BME280;68071;45.062;7.356;2023-03-22T16:10:35;94938.28;;;16.80;51.63
49999;BME280;68071;45.062;7.356;2023-03-22T16:13:42;94935.78;;;16.73;51.39
49999;BME280;68071;45.062;7.356;2023-03-22T16:16:47;94936.03;;;15.82;57.60
49999;BME280;68071;45.062;7.356;2023-03-22T16:19:51;94938.56;;;16.02;54.49
49999;BME280;68071;45.062;7.356;2023-03-22T16:22:55;94937.50;;;15.87;58.67
49999;BME280;68071;45.062;7.356;2023-03-22T16:25:59;94941.88;;;16.23;57.15
49999;BME280;68071;45.062;7.356;2023-03-22T16:29:04;94941.06;;;16.36;56.94
49999;BME280;68071;45.062;7.356;2023-03-22T16:32:15;94940.22;;;16.48;57.65
49999;BME280;68071;45.062;7.356;2023-03-22T16:35:22;94952.81;;;16.75;53.83
49999;BME280;68071;45.062;7.356;2023-03-22T16:38:27;94943.94;;;16.67;58.01
49999;BME280;68071;45.062;7.356;2023-03-22T16:41:32;94946.34;;;16.56;55.40
49999;BME280;68071;45.062;7.356;2023-03-22T16:44:41;94953.50;;;16.09;58.26
49999;BME280;68071;45.062;7.356;2023-03-22T16:47:46;94956.66;;;15.46;57.40
49999;BME280;68071;45.062;7.356;2023-03-22T16:50:50;94950.50;;;14.70;62.20
49999;BME280;68071;45.062;7.356;2023-03-22T16:53:54;94959.66;;;14.71;62.21
49999;BME280;68071;45.062;7.356;2023-03-22T16:56:58;94957.66;;;14.09;60.63
49999;BME280;68071;45.062;7.356;2023-03-22T17:00:03;94956.81;;;13.25;67.38
49999;BME280;68071;45.062;7.356;2023-03-22T17:03:10;94964.28;;;13.28;67.77
49999;BME280;68071;45.062;7.356;2023-03-22T17:06:20;94960.09;;;13.20;68.56
49999;BME280;68071;45.062;7.356;2023-03-22T17:09:26;94972.03;;;13.17;68.29
49999;BME280;68071;45.062;7.356;2023-03-22T17:12:32;94970.41;;;13.20;66.23
49999;BME280;68071;45.062;7.356;2023-03-22T17:15:46;94974.78;;;12.60;71.59
49999;BME280;68071;45.062;7.356;2023-03-22T17:18:51;94980.75;;;12.99;68.38
49999;BME280;68071;45.062;7.356;2023-03-22T17:21:56;94979.00;;;13.45;64.69
49999;BME280;68071;45.062;7.356;2023-03-22T17:25:00;94973.38;;;13.49;63.04
49999;BME280;68071;45.062;7.356;2023-03-22T17:28:07;94980.63;;;12.66;68.34
49999;BME280;68071;45.062;7.356;2023-03-22T17:31:14;94978.41;;;11.89;73.23
49999;BME280;68071;45.062;7.356;2023-03-22T17:34:19;94987.44;;;12.61;68.51
49999;BME280;68071;45.062;7.356;2023-03-22T17:37:24;94994.59;;;13.19;63.71
49999;BME280;68071;45.062;7.356;2023-03-22T17:40:29;94998.34;;;12.92;65.16
49999;BME280;68071;45.062;7.356;2023-03-22T17:43:34;94990.63;;;13.20;63.17
49999;BME280;68071;45.062;7.356;2023-03-22T17:46:39;94987.31;;;12.68;66.47
49999;BME280;68071;45.062;7.356;2023-03-22T17:49:43;94993.94;;;12.75;65.68
49999;BME280;68071;45.062;7.356;2023-03-22T17:52:47;94995.97;;;12.91;64.00
49999;BME280;68071;45.062;7.356;2023-03-22T17:55:51;95002.72;;;12.90;63.79
49999;BME280;68071;45.062;7.356;2023-03-22T17:58:56;95008.63;;;12.92;63.25
49999;BME280;68071;45.062;7.356;2023-03-22T18:02:01;95005.34;;;12.77;63.99
49999;BME280;68071;45.062;7.356;2023-03-22T18:05:06;95004.91;;;12.58;64.92
49999;BME280;68071;45.062;7.356;2023-03-22T18:08:10;95007.13;;;12.47;65.47
49999;BME280;68071;45.062;7.356;2023-03-22T18:11:17;95003.50;;;12.26;66.13
49999;BME280;68071;45.062;7.356;2023-03-22T18:14:21;95001.03;;;12.32;65.68
49999;BME280;68071;45.062;7.356;2023-03-22T18:17:25;94999.72;;;11.38;70.68